Ana Sayfa
METAR-TAF:

METAR-TAF

Havaalanları :

Caracas, Venezuela

Enlem: 10-36N, Boylam: 066-59W, yükseklik: 43 m

Güncel hava durumu gözlemi

Rapor saat 21:00 UTC de 2 saat ve 27 dakika önce yapıldı.
Rüzgar doğudan 3 kt
Sıcaklık 28°C
Nem 74%
Basınç 1013 hPa
Görüş mesafesi 10 km veya daha fazla
1600 ft yükseklikte parçalı çok bulutlu

METAR: SVMI 192100Z 09003KT 9999 BKN016 28/23 Q1013

Saat: 19:27 (23:27 UTC)

Tahmin

Rapor saat 16:00 UTC de 7 saat ve 27 dakika önce yapıldı.
Ayın 19'si saat 18 UTC'den ayın 20'si saat 18 UTC'ye kadar geçerli Tahmin
Rüzgar doğudan 2 kt
Görüş mesafesi 10 km veya daha fazla
1600 ft yükseklikte parçalı çok bulutlu
Dönüşüyor
ayın 19'si saat 18 UTC'den ayın 19'si saat 22 UTC'ye kadar
Rüzgar doğu/kuzeydoğudan 5 kt

TAF: SVMI 191600Z 1918/2018 09002KT 9999 BKN016 TX26/18Z TN22/07Z BECMG 1918/1922 07005KT

4.000'den fazla havaalanı için hava durumu gözlemleri ve tahminleri (METAR ve TAF raporları).

Kullanılabilir istasyonlar harita üzerinde sarı ve kırmızı noktalarla gösterilir.

İstasyonun adını görmek için fareyi noktanın üzerinde gezdirin.

Sonrasında hava gözlem ve tahminlerini görmek için tıklayın.

Haritayı değiştirmek için: yaklaştırmak için siyah artı işaretli yeşil düğmeye ve uzaklaştırmak için de eksi işaretli düğmeye hızla tıklayın; bitişik haritalar için yeşil okları kullanın.


METAR-TAF: